createdAt,value
2019-02-07T00:01:56.978Z,-4.00
2019-02-07T00:04:27.783Z,-4.00
2019-02-07T00:06:58.351Z,-4.10
2019-02-07T00:09:29.552Z,-4.10
2019-02-07T00:12:00.093Z,-4.10
2019-02-07T00:14:49.513Z,-4.10
2019-02-07T00:17:21.154Z,-4.10
2019-02-07T00:19:52.117Z,-4.10
2019-02-07T00:22:23.016Z,-4.10
2019-02-07T00:24:53.849Z,-4.20
2019-02-07T00:27:24.810Z,-4.20
2019-02-07T00:29:55.710Z,-4.10
2019-02-07T00:32:27.276Z,-4.20
2019-02-07T00:34:57.823Z,-4.20
2019-02-07T00:37:29.070Z,-4.20
2019-02-07T00:39:59.868Z,-4.10
2019-02-07T00:42:30.687Z,-4.10
2019-02-07T00:45:01.598Z,-4.10
2019-02-07T00:47:32.102Z,-4.10
2019-02-07T00:50:02.738Z,-4.10
2019-02-07T00:52:33.243Z,-4.00
2019-02-07T00:55:04.018Z,-4.00
2019-02-07T00:57:35.103Z,-4.00
2019-02-07T01:00:07.893Z,-3.90
2019-02-07T01:02:39.128Z,-3.90
2019-02-07T01:05:11.273Z,-3.90
2019-02-07T01:07:42.116Z,-3.80
2019-02-07T01:10:16.134Z,-3.80
2019-02-07T01:12:47.021Z,-3.70
2019-02-07T01:15:17.984Z,-3.80
2019-02-07T01:17:48.790Z,-3.80
2019-02-07T01:20:19.519Z,-3.80
2019-02-07T01:22:50.013Z,-3.90
2019-02-07T01:25:21.948Z,-3.90
2019-02-07T01:27:53.359Z,-3.90
2019-02-07T01:30:24.263Z,-3.90
2019-02-07T01:32:55.187Z,-3.90
2019-02-07T01:35:27.173Z,-4.00
2019-02-07T01:37:58.047Z,-4.00
2019-02-07T01:40:29.052Z,-4.00
2019-02-07T01:42:59.865Z,-4.00
2019-02-07T01:45:30.500Z,-4.00
2019-02-07T01:48:01.019Z,-4.00
2019-02-07T01:50:31.950Z,-4.10
2019-02-07T01:53:02.763Z,-4.10
2019-02-07T01:55:33.300Z,-4.20
2019-02-07T01:58:04.070Z,-4.30
2019-02-07T02:00:35.156Z,-4.30
2019-02-07T02:03:06.220Z,-4.30
2019-02-07T02:05:36.880Z,-4.40
2019-02-07T02:08:07.621Z,-4.30
2019-02-07T02:10:38.150Z,-4.40
2019-02-07T02:13:08.951Z,-4.30
2019-02-07T02:15:39.485Z,-4.30
2019-02-07T02:18:10.263Z,-4.30
2019-02-07T02:20:40.859Z,-4.30
2019-02-07T02:23:11.490Z,-4.30
2019-02-07T02:25:42.324Z,-4.30
2019-02-07T02:28:13.050Z,-4.40
2019-02-07T02:30:44.235Z,-4.40
2019-02-07T02:33:14.936Z,-4.40
2019-02-07T02:35:45.465Z,-4.40
2019-02-07T02:38:16.010Z,-4.40
2019-02-07T02:40:46.522Z,-4.50
2019-02-07T02:43:17.207Z,-4.50
2019-02-07T02:45:48.026Z,-4.50
2019-02-07T02:48:18.550Z,-4.40
2019-02-07T02:50:49.102Z,-4.50
2019-02-07T02:53:19.899Z,-4.50
2019-02-07T02:55:51.436Z,-4.50
2019-02-07T02:58:22.253Z,-4.50
2019-02-07T03:01:27.132Z,-4.60
2019-02-07T03:04:25.620Z,-4.60
2019-02-07T03:07:18.114Z,-4.60
2019-02-07T03:10:13.794Z,-4.60
2019-02-07T03:13:01.967Z,-4.60
2019-02-07T03:15:49.786Z,-4.60
2019-02-07T03:18:37.037Z,-4.60
2019-02-07T03:21:29.274Z,-4.60
2019-02-07T03:24:13.858Z,-4.70
2019-02-07T03:27:12.216Z,-4.70
2019-02-07T03:30:17.035Z,-4.70
2019-02-07T03:33:10.098Z,-4.80
2019-02-07T03:36:06.054Z,-4.70
2019-02-07T03:38:58.668Z,-4.70
2019-02-07T03:41:46.003Z,-4.80
2019-02-07T03:44:39.153Z,-4.70
2019-02-07T03:47:27.705Z,-4.70
2019-02-07T03:50:35.565Z,-4.70
2019-02-07T03:53:27.752Z,-4.70
2019-02-07T03:56:19.864Z,-4.80
2019-02-07T03:59:08.058Z,-4.70
2019-02-07T04:01:48.570Z,-4.70
2019-02-07T04:04:27.567Z,-4.70
2019-02-07T04:07:17.188Z,-4.70
2019-02-07T04:10:06.639Z,-4.70
2019-02-07T04:12:57.408Z,-4.70
2019-02-07T04:15:49.910Z,-4.70
2019-02-07T04:18:47.082Z,-4.80
2019-02-07T04:21:34.982Z,-4.80
2019-02-07T04:24:30.676Z,-4.80
2019-02-07T04:27:14.390Z,-4.80
2019-02-07T04:30:06.717Z,-4.90
2019-02-07T04:32:51.885Z,-4.90
2019-02-07T04:35:47.194Z,-4.90
2019-02-07T04:38:33.872Z,-4.90
2019-02-07T04:41:22.201Z,-4.90
2019-02-07T04:44:17.995Z,-5.00
2019-02-07T04:47:06.168Z,-5.00
2019-02-07T04:49:49.144Z,-5.00
2019-02-07T04:52:36.971Z,-4.90
2019-02-07T04:55:35.745Z,-4.90
2019-02-07T04:58:25.678Z,-4.90
2019-02-07T05:01:24.340Z,-4.90
2019-02-07T05:04:06.598Z,-4.80
2019-02-07T05:06:54.976Z,-4.70
2019-02-07T05:09:43.025Z,-4.70
2019-02-07T05:12:35.535Z,-4.60
2019-02-07T05:15:38.270Z,-4.50
2019-02-07T05:18:21.470Z,-4.40
2019-02-07T05:21:09.826Z,-4.40
2019-02-07T05:23:57.648Z,-4.40
2019-02-07T05:26:54.297Z,-4.30
2019-02-07T05:29:41.292Z,-4.20
2019-02-07T05:32:20.821Z,-4.10
2019-02-07T05:35:01.620Z,-4.10
2019-02-07T05:37:49.780Z,-4.00
2019-02-07T05:40:31.521Z,-4.00
2019-02-07T05:43:21.740Z,-4.00
2019-02-07T05:46:10.213Z,-4.00
2019-02-07T05:49:02.057Z,-4.00
2019-02-07T05:52:00.930Z,-4.00
2019-02-07T05:54:49.319Z,-3.90
2019-02-07T05:57:37.375Z,-4.10
2019-02-07T06:00:27.506Z,-4.00
2019-02-07T06:03:16.061Z,-3.90
2019-02-07T06:06:04.165Z,-3.90
2019-02-07T06:08:52.049Z,-3.90
2019-02-07T06:11:50.464Z,-3.90
2019-02-07T06:14:55.048Z,-4.00
2019-02-07T06:17:44.561Z,-4.00
2019-02-07T06:20:32.874Z,-4.00
2019-02-07T06:23:32.341Z,-4.10
2019-02-07T06:26:13.779Z,-4.20
2019-02-07T06:28:57.617Z,-4.20
2019-02-07T06:31:45.117Z,-4.30
2019-02-07T06:34:33.085Z,-4.30
2019-02-07T06:37:34.734Z,-4.30
2019-02-07T06:40:25.756Z,-4.30
2019-02-07T06:43:13.971Z,-4.30
2019-02-07T06:46:22.030Z,-4.30
2019-02-07T06:49:26.428Z,-4.20
2019-02-07T06:52:15.869Z,-4.20
2019-02-07T06:55:00.730Z,-4.10
2019-02-07T06:58:02.342Z,-4.00
2019-02-07T07:01:03.722Z,-3.90
2019-02-07T07:03:53.446Z,-3.90
2019-02-07T07:06:43.741Z,-3.80
2019-02-07T07:09:31.833Z,-3.70
2019-02-07T07:12:20.433Z,-3.60
2019-02-07T07:15:09.838Z,-3.60
2019-02-07T07:17:51.736Z,-3.60
2019-02-07T07:20:47.657Z,-3.60
2019-02-07T07:23:48.226Z,-3.50
2019-02-07T07:26:36.027Z,-3.40
2019-02-07T07:29:34.591Z,-3.30
2019-02-07T07:32:23.139Z,-3.30
2019-02-07T07:35:18.366Z,-3.20
2019-02-07T07:38:16.981Z,-3.20
2019-02-07T07:41:06.105Z,-3.10
2019-02-07T07:43:54.558Z,-3.00
2019-02-07T07:46:43.019Z,-3.00
2019-02-07T07:49:44.637Z,-2.90
2019-02-07T07:52:33.982Z,-2.80
2019-02-07T07:55:13.858Z,-2.80
2019-02-07T07:58:02.396Z,-2.70
2019-02-07T08:00:51.939Z,-2.70
2019-02-07T08:03:40.060Z,-2.70
2019-02-07T08:06:18.967Z,-2.60
2019-02-07T08:09:20.816Z,-2.50
2019-02-07T08:12:16.953Z,-2.50
2019-02-07T08:15:18.461Z,-2.40
2019-02-07T08:18:06.580Z,-2.30
2019-02-07T08:21:02.168Z,-2.30
2019-02-07T08:23:45.756Z,-2.20
2019-02-07T08:26:34.020Z,-2.20
2019-02-07T08:29:22.383Z,-2.20
2019-02-07T08:32:14.815Z,-2.10
2019-02-07T08:34:58.819Z,-2.00
2019-02-07T08:37:54.983Z,-1.80
2019-02-07T08:40:37.228Z,-1.70
2019-02-07T08:43:44.989Z,-1.60
2019-02-07T08:46:49.691Z,-1.50
2019-02-07T08:49:38.084Z,-1.40
2019-02-07T08:52:30.886Z,-1.20
2019-02-07T08:55:23.088Z,-1.20
2019-02-07T08:58:26.377Z,-1.20
2019-02-07T09:01:22.223Z,-1.10
2019-02-07T09:04:23.616Z,-0.90
2019-02-07T09:07:13.058Z,-0.80
2019-02-07T09:09:53.234Z,-0.60
2019-02-07T09:12:42.735Z,-0.60
2019-02-07T09:15:32.366Z,-0.70
2019-02-07T09:18:29.055Z,-0.50
2019-02-07T09:21:17.951Z,-0.40
2019-02-07T09:24:22.634Z,-0.40
2019-02-07T09:27:27.090Z,-0.30
2019-02-07T09:30:25.614Z,-0.10
2019-02-07T09:33:27.349Z,0.10
2019-02-07T09:36:15.590Z,0.20
2019-02-07T09:39:07.940Z,0.20
2019-02-07T09:42:15.630Z,0.30
2019-02-07T09:45:20.025Z,0.50
2019-02-07T09:48:21.631Z,0.60
2019-02-07T09:51:10.121Z,0.70
2019-02-07T09:54:11.854Z,0.80
2019-02-07T09:57:04.067Z,0.80
2019-02-07T09:59:47.860Z,0.90
2019-02-07T10:02:27.939Z,1.00
2019-02-07T10:05:23.603Z,1.00
2019-02-07T10:08:15.970Z,1.10
2019-02-07T10:11:07.512Z,1.10
2019-02-07T10:13:59.811Z,1.00
2019-02-07T10:16:47.957Z,1.10
2019-02-07T10:19:36.536Z,1.20
2019-02-07T10:22:28.927Z,1.30
2019-02-07T10:25:21.490Z,1.40
2019-02-07T10:28:06.998Z,1.50
2019-02-07T10:31:13.432Z,1.60
2019-02-07T10:34:01.646Z,1.60
2019-02-07T10:37:07.995Z,1.70
2019-02-07T10:40:13.302Z,1.60
2019-02-07T10:43:01.661Z,1.70
2019-02-07T10:45:54.198Z,1.70
2019-02-07T10:48:49.832Z,1.80
2019-02-07T10:51:39.068Z,1.90
2019-02-07T10:54:30.022Z,1.90
2019-02-07T10:57:27.033Z,1.90
2019-02-07T11:00:19.870Z,2.00
2019-02-07T11:03:11.371Z,1.90
2019-02-07T11:06:16.459Z,2.00
2019-02-07T11:09:04.628Z,2.00
2019-02-07T11:11:50.225Z,2.00
2019-02-07T11:14:39.897Z,2.00
2019-02-07T11:17:32.345Z,2.00
2019-02-07T11:20:27.927Z,1.90
2019-02-07T11:23:32.316Z,2.00
2019-02-07T11:26:28.072Z,2.10
2019-02-07T11:29:16.659Z,2.10
2019-02-07T11:32:09.158Z,2.20
2019-02-07T11:34:59.667Z,2.30
2019-02-07T11:37:47.732Z,2.40
2019-02-07T11:40:52.128Z,2.50
2019-02-07T11:43:37.879Z,2.50
2019-02-07T11:46:27.591Z,2.60
2019-02-07T11:49:23.172Z,2.60
2019-02-07T11:52:19.032Z,2.60
2019-02-07T11:55:11.295Z,2.60
2019-02-07T11:58:16.327Z,2.50
2019-02-07T12:00:57.887Z,2.40
2019-02-07T12:03:56.361Z,2.20
2019-02-07T12:06:40.084Z,2.10
2019-02-07T12:09:33.379Z,2.10
2019-02-07T12:12:26.096Z,2.10
2019-02-07T12:15:14.368Z,2.20
2019-02-07T12:18:14.847Z,2.30
2019-02-07T12:21:08.559Z,2.20
2019-02-07T12:24:05.840Z,2.30
2019-02-07T12:27:07.647Z,2.30
2019-02-07T12:30:00.402Z,2.40
2019-02-07T12:32:50.540Z,2.50
2019-02-07T12:35:51.889Z,2.60
2019-02-07T12:39:01.998Z,2.70
2019-02-07T12:41:49.979Z,2.70
2019-02-07T12:44:45.591Z,2.80
2019-02-07T12:47:40.878Z,2.80
2019-02-07T12:50:46.736Z,2.80
2019-02-07T12:53:48.555Z,2.80
2019-02-07T12:56:45.901Z,2.90
2019-02-07T12:59:47.158Z,2.90
2019-02-07T13:02:30.458Z,2.80
2019-02-07T13:05:20.127Z,2.90
2019-02-07T13:08:12.716Z,3.00
2019-02-07T13:11:09.701Z,3.10
2019-02-07T13:13:56.149Z,3.20
2019-02-07T13:16:52.686Z,3.20
2019-02-07T13:19:50.981Z,3.20
2019-02-07T13:22:52.709Z,3.30
2019-02-07T13:25:40.309Z,3.40
2019-02-07T13:28:33.314Z,3.50
2019-02-07T13:31:29.253Z,3.50
2019-02-07T13:34:29.125Z,3.50
2019-02-07T13:37:15.261Z,3.50
2019-02-07T13:40:03.903Z,3.40
2019-02-07T13:42:51.885Z,3.40
2019-02-07T13:45:44.420Z,3.40
2019-02-07T13:48:24.492Z,3.40
2019-02-07T13:51:13.006Z,3.50
2019-02-07T13:54:02.547Z,3.60
2019-02-07T13:56:54.975Z,3.60
2019-02-07T13:59:39.519Z,3.80
2019-02-07T14:02:38.373Z,3.90
2019-02-07T14:05:28.417Z,4.00
2019-02-07T14:08:21.211Z,4.10
2019-02-07T14:11:02.483Z,4.20
2019-02-07T14:13:55.379Z,4.20
2019-02-07T14:16:45.223Z,4.20
2019-02-07T14:19:33.491Z,4.20
2019-02-07T14:22:22.164Z,4.30
2019-02-07T14:25:07.957Z,4.40
2019-02-07T14:27:55.995Z,4.40
2019-02-07T14:30:55.578Z,4.40
2019-02-07T14:33:44.827Z,4.30
2019-02-07T14:36:34.489Z,4.20
2019-02-07T14:39:32.808Z,4.20
2019-02-07T14:42:21.006Z,4.20
2019-02-07T14:45:16.631Z,4.20
2019-02-07T14:47:47.761Z,4.10
2019-02-07T14:50:18.891Z,4.20
2019-02-07T14:52:50.561Z,4.30
2019-02-07T14:55:21.483Z,4.50
2019-02-07T14:57:52.545Z,4.50
2019-02-07T15:00:24.905Z,4.50
2019-02-07T15:02:55.581Z,4.50
2019-02-07T15:05:26.437Z,4.50
2019-02-07T15:07:56.993Z,4.40
2019-02-07T15:10:28.776Z,4.30
2019-02-07T15:13:01.296Z,4.20
2019-02-07T15:15:32.159Z,4.10
2019-02-07T15:18:02.763Z,4.00
2019-02-07T15:20:33.614Z,4.00
2019-02-07T15:23:04.911Z,4.00
2019-02-07T15:25:35.792Z,3.90
2019-02-07T15:28:06.539Z,3.90
2019-02-07T15:30:37.842Z,3.80
2019-02-07T15:33:08.674Z,3.70
2019-02-07T15:35:43.929Z,3.70
2019-02-07T15:38:14.743Z,3.70
2019-02-07T15:40:46.085Z,3.70
2019-02-07T15:43:17.286Z,3.70
2019-02-07T15:45:47.842Z,3.80
2019-02-07T15:48:18.908Z,3.80
2019-02-07T15:50:49.783Z,3.80
2019-02-07T15:53:20.618Z,3.80
2019-02-07T15:55:51.933Z,3.80
2019-02-07T15:58:31.656Z,3.70
2019-02-07T16:01:08.524Z,3.80
2019-02-07T16:04:03.775Z,3.70
2019-02-07T16:06:34.843Z,3.70
2019-02-07T16:09:08.682Z,3.60
2019-02-07T16:11:40.109Z,3.60
2019-02-07T16:14:10.696Z,3.60
2019-02-07T16:16:41.546Z,3.60
2019-02-07T16:19:12.116Z,3.50
2019-02-07T16:21:42.973Z,3.50
2019-02-07T16:24:15.911Z,3.40
2019-02-07T16:26:46.094Z,3.40
2019-02-07T16:29:16.694Z,3.30
2019-02-07T16:31:47.526Z,3.30
2019-02-07T16:34:19.152Z,3.30
2019-02-07T16:36:50.063Z,3.30
2019-02-07T16:39:21.497Z,3.20
2019-02-07T16:41:52.139Z,3.20
2019-02-07T16:44:23.137Z,3.20
2019-02-07T16:46:54.571Z,3.10
2019-02-07T16:49:25.194Z,3.20
2019-02-07T16:51:55.749Z,3.10
2019-02-07T16:54:26.387Z,3.00
2019-02-07T16:56:57.026Z,3.00
2019-02-07T16:59:29.169Z,3.00
2019-02-07T17:01:59.671Z,3.00
2019-02-07T17:04:31.065Z,3.10
2019-02-07T17:07:01.776Z,3.00
2019-02-07T17:09:42.650Z,3.10
2019-02-07T17:12:13.418Z,3.00
2019-02-07T17:15:07.462Z,3.00
2019-02-07T17:17:38.177Z,3.00
2019-02-07T17:20:21.783Z,3.00
2019-02-07T17:22:52.943Z,3.00
2019-02-07T17:25:23.935Z,3.00
2019-02-07T17:27:54.722Z,3.00
2019-02-07T17:30:25.441Z,3.00
2019-02-07T17:32:56.277Z,3.00
2019-02-07T17:35:26.972Z,2.90
2019-02-07T17:37:57.707Z,2.90
2019-02-07T17:40:29.036Z,2.80
2019-02-07T17:42:59.738Z,2.80
2019-02-07T17:45:31.611Z,2.80
2019-02-07T17:48:02.169Z,2.80
2019-02-07T17:50:35.941Z,2.80
2019-02-07T17:53:08.504Z,2.90
2019-02-07T17:55:39.184Z,3.00
2019-02-07T17:58:10.632Z,3.00
2019-02-07T18:01:13.581Z,3.00
2019-02-07T18:03:44.751Z,3.00
2019-02-07T18:06:15.892Z,3.10
2019-02-07T18:08:46.815Z,3.10
2019-02-07T18:11:26.298Z,3.10
2019-02-07T18:13:56.885Z,3.10
2019-02-07T18:16:29.160Z,3.10
2019-02-07T18:18:59.791Z,3.00
2019-02-07T18:21:34.199Z,3.00
2019-02-07T18:24:03.112Z,3.00
2019-02-07T18:26:34.083Z,3.00
2019-02-07T18:29:05.202Z,3.00
2019-02-07T18:31:36.385Z,3.00
2019-02-07T18:34:07.067Z,3.00
2019-02-07T18:36:37.953Z,3.00
2019-02-07T18:39:10.713Z,3.10
2019-02-07T18:41:41.399Z,3.10
2019-02-07T18:44:12.455Z,3.10
2019-02-07T18:46:43.236Z,3.00
2019-02-07T18:49:13.908Z,3.00
2019-02-07T18:51:45.906Z,2.90
2019-02-07T18:54:16.560Z,2.90
2019-02-07T18:56:47.626Z,2.90
2019-02-07T18:59:18.242Z,2.80
2019-02-07T19:01:49.320Z,2.70
2019-02-07T19:04:20.420Z,2.70
2019-02-07T19:06:51.010Z,2.70
2019-02-07T19:09:21.611Z,2.60
2019-02-07T19:11:52.546Z,2.50
2019-02-07T19:14:23.182Z,2.60
2019-02-07T19:16:54.014Z,2.50
2019-02-07T19:19:24.853Z,2.50
2019-02-07T19:21:57.445Z,2.50
2019-02-07T19:24:31.961Z,2.50
2019-02-07T19:27:02.704Z,2.50
2019-02-07T19:29:33.364Z,2.40
2019-02-07T19:32:04.026Z,2.30
2019-02-07T19:34:35.194Z,2.30
2019-02-07T19:37:06.123Z,2.30
2019-02-07T19:39:37.390Z,2.20
2019-02-07T19:42:08.356Z,2.30
2019-02-07T19:44:39.285Z,2.30
2019-02-07T19:47:10.051Z,2.20
2019-02-07T19:49:41.264Z,2.20
2019-02-07T19:52:12.251Z,2.10
2019-02-07T19:54:43.449Z,2.10
2019-02-07T19:57:14.257Z,2.00
2019-02-07T19:59:45.256Z,2.00
2019-02-07T20:02:16.107Z,2.00
2019-02-07T20:04:47.268Z,2.00
2019-02-07T20:07:18.070Z,2.00
2019-02-07T20:09:48.705Z,1.90
2019-02-07T20:12:19.319Z,1.80
2019-02-07T20:14:50.192Z,1.80
2019-02-07T20:17:20.842Z,1.70
2019-02-07T20:19:52.003Z,1.70
2019-02-07T20:22:22.569Z,1.70
2019-02-07T20:24:53.196Z,1.70
2019-02-07T20:27:23.844Z,1.60
2019-02-07T20:29:54.523Z,1.60
2019-02-07T20:32:25.198Z,1.60
2019-02-07T20:34:56.180Z,1.60
2019-02-07T20:37:26.812Z,1.60
2019-02-07T20:39:57.553Z,1.60
2019-02-07T20:42:29.477Z,1.60
2019-02-07T20:45:00.473Z,1.50
2019-02-07T20:47:31.350Z,1.40
2019-02-07T20:50:02.279Z,1.40
2019-02-07T20:52:33.524Z,1.40
2019-02-07T20:55:05.607Z,1.20
2019-02-07T20:57:36.538Z,1.30
2019-02-07T21:00:14.849Z,1.20
2019-02-07T21:02:45.840Z,1.30
2019-02-07T21:05:17.191Z,1.20
2019-02-07T21:07:47.996Z,1.20
2019-02-07T21:10:20.259Z,1.20
2019-02-07T21:12:51.611Z,1.20
2019-02-07T21:15:22.396Z,1.20
2019-02-07T21:17:53.314Z,1.20
2019-02-07T21:20:26.604Z,1.10
2019-02-07T21:22:58.524Z,1.10
2019-02-07T21:25:42.922Z,1.00
2019-02-07T21:28:13.926Z,1.00
2019-02-07T21:30:44.796Z,0.90
2019-02-07T21:33:15.524Z,0.90
2019-02-07T21:35:46.408Z,0.90
2019-02-07T21:38:17.413Z,0.90
2019-02-07T21:40:48.261Z,0.90
2019-02-07T21:43:18.809Z,0.90
2019-02-07T21:45:49.472Z,0.80
2019-02-07T21:48:20.079Z,0.80
2019-02-07T21:50:50.679Z,0.70
2019-02-07T21:53:21.438Z,0.70
2019-02-07T21:55:52.331Z,0.70
2019-02-07T21:58:22.907Z,0.70
2019-02-07T22:00:53.415Z,0.70
2019-02-07T22:03:24.220Z,0.60
2019-02-07T22:05:54.749Z,0.70
2019-02-07T22:08:25.493Z,0.60
2019-02-07T22:10:56.466Z,0.70
2019-02-07T22:13:27.306Z,0.60
2019-02-07T22:15:58.148Z,0.60
2019-02-07T22:18:29.634Z,0.60
2019-02-07T22:21:00.539Z,0.60
2019-02-07T22:23:31.425Z,0.50
2019-02-07T22:26:02.275Z,0.50
2019-02-07T22:28:33.573Z,0.50
2019-02-07T22:31:04.337Z,0.50
2019-02-07T22:33:35.221Z,0.50
2019-02-07T22:36:06.024Z,0.40
2019-02-07T22:38:36.719Z,0.50
2019-02-07T22:41:07.365Z,0.50
2019-02-07T22:43:38.036Z,0.60
2019-02-07T22:46:08.577Z,0.60
2019-02-07T22:48:39.697Z,0.70
2019-02-07T22:51:10.511Z,0.60
2019-02-07T22:53:41.420Z,0.60
2019-02-07T22:56:12.299Z,0.60
2019-02-07T22:58:43.370Z,0.60
2019-02-07T23:01:30.475Z,0.60
2019-02-07T23:04:08.254Z,0.60
2019-02-07T23:06:39.081Z,0.50
2019-02-07T23:09:17.941Z,0.60
2019-02-07T23:11:48.577Z,0.60
2019-02-07T23:14:19.447Z,0.60
2019-02-07T23:16:50.368Z,0.60
2019-02-07T23:19:20.914Z,0.60
2019-02-07T23:21:51.463Z,0.60
2019-02-07T23:24:22.045Z,0.60
2019-02-07T23:26:54.548Z,0.60
2019-02-07T23:29:27.619Z,0.60
2019-02-07T23:31:58.622Z,0.60
2019-02-07T23:34:29.931Z,0.50
2019-02-07T23:37:00.516Z,0.60
2019-02-07T23:39:31.707Z,0.50
2019-02-07T23:42:02.521Z,0.50
2019-02-07T23:44:33.136Z,0.50
2019-02-07T23:47:03.741Z,0.50
2019-02-07T23:49:34.563Z,0.50
2019-02-07T23:52:05.451Z,0.40
2019-02-07T23:54:36.783Z,0.50
2019-02-07T23:57:07.614Z,0.40
2019-02-07T23:59:38.426Z,0.30
